createdAt,value
2019-02-27T00:02:22.680Z,77.20
2019-02-27T00:05:00.371Z,77.30
2019-02-27T00:07:41.134Z,76.70
2019-02-27T00:10:21.255Z,77.20
2019-02-27T00:13:01.535Z,77.30
2019-02-27T00:15:42.988Z,77.10
2019-02-27T00:18:23.948Z,76.10
2019-02-27T00:21:04.548Z,75.50
2019-02-27T00:23:44.108Z,74.90
2019-02-27T00:26:23.463Z,74.70
2019-02-27T00:29:02.810Z,75.10
2019-02-27T00:31:45.522Z,76.10
2019-02-27T00:34:23.328Z,76.00
2019-02-27T00:37:06.086Z,75.80
2019-02-27T00:39:46.394Z,74.60
2019-02-27T00:42:33.230Z,74.60
2019-02-27T00:45:07.027Z,74.70
2019-02-27T00:47:46.672Z,74.40
2019-02-27T00:53:59.058Z,74.00
2019-02-27T00:56:44.661Z,74.50
2019-02-27T00:59:20.534Z,74.30
2019-02-27T01:01:59.890Z,74.20
2019-02-27T01:04:40.292Z,73.60
2019-02-27T01:07:21.431Z,73.50
2019-02-27T01:10:00.844Z,72.30
2019-02-27T01:12:40.759Z,72.00
2019-02-27T01:21:54.303Z,72.10
2019-02-27T01:24:34.386Z,73.40
2019-02-27T01:27:14.271Z,73.00
2019-02-27T01:29:53.900Z,72.20
2019-02-27T01:32:39.777Z,72.40
2019-02-27T01:35:21.231Z,72.70
2019-02-27T01:38:05.088Z,72.50
2019-02-27T01:40:42.884Z,70.30
2019-02-27T01:43:22.824Z,70.90
2019-02-27T01:46:02.080Z,70.30
2019-02-27T01:48:43.598Z,70.40
2019-02-27T01:51:21.498Z,70.80
2019-02-27T01:54:00.739Z,70.00
2019-02-27T01:56:40.465Z,68.50
2019-02-27T01:59:21.796Z,69.20
2019-02-27T02:02:01.050Z,70.20
2019-02-27T02:04:41.765Z,70.30
2019-02-27T02:07:21.225Z,69.90
2019-02-27T02:10:00.514Z,68.20
2019-02-27T02:12:41.661Z,68.00
2019-02-27T02:15:48.798Z,69.00
2019-02-27T02:18:54.479Z,67.40
2019-02-27T02:21:49.226Z,67.00
2019-02-27T02:25:05.765Z,66.50
2019-02-27T02:28:15.410Z,66.30
2019-02-27T02:31:49.467Z,66.70
2019-02-27T02:35:01.148Z,66.20
2019-02-27T02:38:19.137Z,64.50
2019-02-27T02:41:30.077Z,64.40
2019-02-27T02:44:32.393Z,63.10
2019-02-27T02:47:45.590Z,62.50
2019-02-27T02:50:58.866Z,63.10
2019-02-27T02:54:41.181Z,62.40
2019-02-27T02:57:57.889Z,61.10
2019-02-27T03:01:15.504Z,61.80
2019-02-27T03:04:06.444Z,62.20
2019-02-27T03:07:19.416Z,64.10
2019-02-27T03:10:20.052Z,62.80
2019-02-27T03:13:30.568Z,61.90
2019-02-27T03:16:34.239Z,62.30
2019-02-27T03:19:14.268Z,63.10
2019-02-27T03:22:13.366Z,62.20
2019-02-27T03:25:18.368Z,62.10
2019-02-27T03:28:30.967Z,61.40
2019-02-27T03:31:57.819Z,61.30
2019-02-27T03:35:27.925Z,61.20
2019-02-27T03:38:31.520Z,62.50
2019-02-27T03:41:23.607Z,61.20
2019-02-27T03:44:30.073Z,61.10
2019-02-27T03:48:00.550Z,60.10
2019-02-27T03:51:16.982Z,61.10
2019-02-27T03:54:26.180Z,59.80
2019-02-27T03:57:42.720Z,59.20
2019-02-27T04:01:02.849Z,60.40
2019-02-27T04:04:08.457Z,61.30
2019-02-27T04:07:14.369Z,61.10
2019-02-27T04:09:56.407Z,62.30
2019-02-27T04:12:36.952Z,61.10
2019-02-27T04:15:18.082Z,61.00
2019-02-27T04:17:54.291Z,60.10
2019-02-27T04:20:33.396Z,60.00
2019-02-27T04:23:12.872Z,60.00
2019-02-27T04:25:53.612Z,60.10
2019-02-27T04:28:35.999Z,59.50
2019-02-27T04:31:18.601Z,60.30
2019-02-27T04:34:00.267Z,60.40
2019-02-27T04:36:38.614Z,59.20
2019-02-27T04:39:18.638Z,59.70
2019-02-27T04:42:10.141Z,60.10
2019-02-27T04:44:51.832Z,60.50
2019-02-27T04:47:31.301Z,60.00
2019-02-27T04:50:11.341Z,61.30
2019-02-27T04:52:51.181Z,60.70
2019-02-27T04:55:32.198Z,60.60
2019-02-27T04:58:22.502Z,62.40
2019-02-27T05:01:02.363Z,63.40
2019-02-27T05:03:46.719Z,60.10
2019-02-27T05:06:31.269Z,59.00
2019-02-27T05:09:12.806Z,58.30
2019-02-27T05:11:57.191Z,58.30
2019-02-27T05:14:37.705Z,58.90
2019-02-27T05:17:21.169Z,59.60
2019-02-27T05:19:57.808Z,59.40
2019-02-27T05:22:41.195Z,59.70
2019-02-27T05:25:24.077Z,60.00
2019-02-27T05:28:02.102Z,60.20
2019-02-27T05:30:44.784Z,60.30
2019-02-27T05:33:22.949Z,60.00
2019-02-27T05:36:02.333Z,57.80
2019-02-27T05:38:43.626Z,61.30
2019-02-27T05:41:23.470Z,63.00
2019-02-27T05:44:02.533Z,61.60
2019-02-27T05:46:43.224Z,59.60
2019-02-27T05:49:27.378Z,58.20
2019-02-27T05:52:07.795Z,60.20
2019-02-27T05:54:48.323Z,62.30
2019-02-27T05:57:29.108Z,60.80
2019-02-27T06:00:08.785Z,59.00
2019-02-27T06:02:49.135Z,57.80
2019-02-27T06:05:28.017Z,59.60
2019-02-27T06:08:07.780Z,60.40
2019-02-27T06:10:47.092Z,59.50
2019-02-27T06:13:27.571Z,59.60
2019-02-27T06:16:09.190Z,57.20
2019-02-27T06:18:48.499Z,57.40
2019-02-27T06:21:28.474Z,58.20
2019-02-27T06:24:11.656Z,58.10
2019-02-27T06:26:48.860Z,58.30
2019-02-27T06:29:29.209Z,57.90
2019-02-27T06:32:17.283Z,57.00
2019-02-27T06:34:59.281Z,56.80
2019-02-27T06:37:37.253Z,56.70
2019-02-27T06:40:18.321Z,56.60
2019-02-27T06:42:58.901Z,57.00
2019-02-27T06:45:38.446Z,55.20
2019-02-27T06:48:18.645Z,55.70
2019-02-27T06:50:58.231Z,54.40
2019-02-27T06:53:38.957Z,54.80
2019-02-27T06:56:17.891Z,53.70
2019-02-27T06:58:57.236Z,54.60
2019-02-27T07:01:36.426Z,55.10
2019-02-27T07:04:15.536Z,55.20
2019-02-27T07:07:13.078Z,55.80
2019-02-27T07:09:53.679Z,54.40
2019-02-27T07:12:32.852Z,53.80
2019-02-27T07:15:13.504Z,53.70
2019-02-27T07:17:53.919Z,53.80
2019-02-27T07:20:33.151Z,55.00
2019-02-27T07:23:12.294Z,53.90
2019-02-27T07:25:51.437Z,53.40
2019-02-27T07:28:30.908Z,53.90
2019-02-27T07:31:10.097Z,54.20
2019-02-27T07:33:49.891Z,54.70
2019-02-27T07:36:29.908Z,54.80
2019-02-27T07:39:10.401Z,55.00
2019-02-27T07:41:49.500Z,55.00
2019-02-27T07:44:34.699Z,55.10
2019-02-27T07:47:10.913Z,54.80
2019-02-27T07:49:53.276Z,55.00
2019-02-27T07:52:33.292Z,56.10
2019-02-27T07:55:21.649Z,56.40
2019-02-27T07:57:58.392Z,55.80
2019-02-27T08:00:37.347Z,55.80
2019-02-27T08:03:16.692Z,57.90
2019-02-27T08:05:59.840Z,57.30
2019-02-27T08:08:39.411Z,57.50
2019-02-27T08:11:18.507Z,57.70
2019-02-27T08:14:03.363Z,58.30
2019-02-27T08:16:42.142Z,57.50
2019-02-27T08:19:21.581Z,58.00
2019-02-27T08:22:00.778Z,57.00
2019-02-27T08:24:39.744Z,57.60
2019-02-27T08:27:19.107Z,58.20
2019-02-27T08:29:59.778Z,57.80
2019-02-27T08:32:39.653Z,57.10
2019-02-27T08:35:18.931Z,57.00
2019-02-27T08:38:02.633Z,58.20
2019-02-27T08:40:41.065Z,58.00
2019-02-27T08:43:19.686Z,58.10
2019-02-27T08:46:02.124Z,57.50
2019-02-27T08:48:39.276Z,57.10
2019-02-27T08:51:19.188Z,57.00
2019-02-27T08:53:59.281Z,57.30
2019-02-27T08:56:39.849Z,57.40
2019-02-27T08:59:21.251Z,58.00
2019-02-27T09:02:00.478Z,57.90
2019-02-27T09:04:42.831Z,58.40
2019-02-27T09:07:24.529Z,58.10
2019-02-27T09:10:14.487Z,58.60
2019-02-27T09:13:04.447Z,58.00
2019-02-27T09:15:36.318Z,58.70
2019-02-27T09:18:15.645Z,58.60
2019-02-27T09:20:55.478Z,58.10
2019-02-27T09:23:34.584Z,58.30
2019-02-27T09:26:13.785Z,58.20
2019-02-27T09:28:54.084Z,58.00
2019-02-27T09:31:34.769Z,59.00
2019-02-27T09:34:13.766Z,59.10
2019-02-27T09:36:53.084Z,59.40
2019-02-27T09:39:32.383Z,58.20
2019-02-27T09:42:11.492Z,58.60
2019-02-27T09:44:50.739Z,59.30
2019-02-27T09:47:30.147Z,59.10
2019-02-27T09:50:14.123Z,58.80
2019-02-27T09:52:53.525Z,58.30
2019-02-27T09:55:32.983Z,59.00
2019-02-27T09:58:15.594Z,59.20
2019-02-27T10:01:00.306Z,58.90
2019-02-27T10:03:38.986Z,58.80
2019-02-27T10:06:18.498Z,58.60
2019-02-27T10:08:59.076Z,58.00
2019-02-27T10:11:39.269Z,59.00
2019-02-27T10:14:19.502Z,59.10
2019-02-27T10:17:00.351Z,58.90
2019-02-27T10:19:39.662Z,59.60
2019-02-27T10:22:20.323Z,60.10
2019-02-27T10:24:59.793Z,60.10
2019-02-27T10:27:49.752Z,60.20
2019-02-27T10:30:29.281Z,59.90
2019-02-27T10:33:11.169Z,60.60
2019-02-27T10:35:51.905Z,61.60
2019-02-27T10:38:32.582Z,61.90
2019-02-27T10:41:12.077Z,61.30
2019-02-27T10:43:51.053Z,60.30
2019-02-27T10:46:30.436Z,62.20
2019-02-27T10:49:10.003Z,61.30
2019-02-27T10:51:51.197Z,61.70
2019-02-27T10:54:30.856Z,60.80
2019-02-27T10:57:10.216Z,59.50
2019-02-27T10:59:51.876Z,60.00
2019-02-27T11:02:31.701Z,61.20
2019-02-27T11:05:11.418Z,62.10
2019-02-27T11:07:53.064Z,62.20
2019-02-27T11:10:32.974Z,62.40
2019-02-27T11:13:12.279Z,62.50
2019-02-27T11:15:51.401Z,63.20
2019-02-27T11:18:31.109Z,64.00
2019-02-27T11:21:14.419Z,63.70
2019-02-27T11:23:57.850Z,63.90
2019-02-27T11:26:43.236Z,64.60
2019-02-27T11:29:27.867Z,65.00
2019-02-27T11:32:09.707Z,65.60
2019-02-27T11:34:52.116Z,65.10
2019-02-27T11:37:35.427Z,65.00
2019-02-27T11:40:24.203Z,65.70
2019-02-27T11:43:07.651Z,66.50
2019-02-27T11:45:51.521Z,66.30
2019-02-27T11:48:31.840Z,66.50
2019-02-27T11:51:13.962Z,67.30
2019-02-27T11:53:53.867Z,67.90
2019-02-27T11:56:34.820Z,67.80
2019-02-27T11:59:15.512Z,67.70
2019-02-27T12:01:56.261Z,68.90
2019-02-27T12:04:35.295Z,70.30
2019-02-27T12:07:17.228Z,71.00
2019-02-27T12:09:55.799Z,71.80
2019-02-27T12:12:35.144Z,72.30
2019-02-27T12:15:15.721Z,72.90
2019-02-27T12:17:59.977Z,72.90
2019-02-27T12:20:36.444Z,72.70
2019-02-27T14:43:10.127Z,81.50
2019-02-27T14:45:50.907Z,81.30
2019-02-27T14:48:30.100Z,80.70
2019-02-27T14:51:11.073Z,80.50
2019-02-27T14:53:51.929Z,79.80
2019-02-27T14:56:29.380Z,80.60
2019-02-27T14:59:09.767Z,80.30
2019-02-27T15:01:49.226Z,80.60
2019-02-27T15:04:28.902Z,80.60
2019-02-27T15:07:08.097Z,80.60
2019-02-27T15:09:47.972Z,80.40
2019-02-27T15:12:25.771Z,80.50
2019-02-27T15:15:09.461Z,79.80
2019-02-27T15:17:51.212Z,79.70
2019-02-27T15:20:29.675Z,80.10
2019-02-27T15:23:09.592Z,78.90
2019-02-27T15:25:48.338Z,78.50
2019-02-27T15:28:32.915Z,77.90
2019-02-27T15:31:10.067Z,78.40
2019-02-27T15:33:48.321Z,78.10
2019-02-27T15:36:37.530Z,77.40
2019-02-27T15:39:20.274Z,76.90
2019-02-27T15:41:58.961Z,76.70
2019-02-27T15:44:40.262Z,77.00
2019-02-27T15:47:20.539Z,76.40
2019-02-27T15:50:02.698Z,75.60
2019-02-27T15:52:44.484Z,76.10
2019-02-27T15:55:38.765Z,76.90
2019-02-27T15:58:18.260Z,76.90
2019-02-27T16:00:56.871Z,76.80
2019-02-27T16:03:34.833Z,77.10
2019-02-27T16:06:27.215Z,78.10
2019-02-27T16:09:11.159Z,78.60
2019-02-27T16:11:51.487Z,78.20
2019-02-27T16:14:31.841Z,78.20
2019-02-27T16:17:19.164Z,78.40
2019-02-27T16:19:59.515Z,79.80
2019-02-27T16:23:29.499Z,79.70
2019-02-27T16:26:12.626Z,79.60
2019-02-27T16:28:54.368Z,79.70
2019-02-27T16:31:31.984Z,80.40
2019-02-27T16:34:12.361Z,80.50
2019-02-27T16:36:49.991Z,80.50
2019-02-27T16:39:27.743Z,80.20
2019-02-27T16:42:06.250Z,80.60
2019-02-27T16:44:46.033Z,80.40
2019-02-27T16:47:25.046Z,80.10
2019-02-27T16:50:03.058Z,80.00
2019-02-27T16:52:43.936Z,79.80
2019-02-27T16:55:23.510Z,79.60
2019-02-27T16:58:03.312Z,78.80
2019-02-27T17:00:42.223Z,78.80
2019-02-27T17:03:21.129Z,78.80
2019-02-27T17:05:59.804Z,78.80
2019-02-27T17:08:45.267Z,78.10
2019-02-27T17:11:23.029Z,78.20
2019-02-27T17:14:01.244Z,78.50
2019-02-27T17:16:44.360Z,78.40
2019-02-27T17:19:21.987Z,77.60
2019-02-27T17:22:00.362Z,76.90
2019-02-27T17:24:39.846Z,77.00
2019-02-27T17:27:18.526Z,78.20
2019-02-27T17:29:59.801Z,78.00
2019-02-27T17:32:37.147Z,77.00
2019-02-27T17:35:15.561Z,76.90
2019-02-27T17:37:54.631Z,77.80
2019-02-27T17:40:37.652Z,78.10
2019-02-27T17:43:17.365Z,77.70
2019-02-27T17:45:59.993Z,77.20
2019-02-27T17:48:39.406Z,77.60
2019-02-27T17:51:19.752Z,78.00
2019-02-27T17:53:57.970Z,77.70
2019-02-27T17:56:39.296Z,77.40
2019-02-27T17:59:18.547Z,77.40
2019-02-27T18:01:58.732Z,78.30
2019-02-27T18:04:37.725Z,78.50
2019-02-27T18:07:15.685Z,78.90
2019-02-27T18:09:54.636Z,79.10
2019-02-27T18:12:38.196Z,79.00
2019-02-27T18:15:20.140Z,79.50
2019-02-27T18:17:57.240Z,79.30
2019-02-27T18:20:36.498Z,79.70
2019-02-27T18:23:21.986Z,79.90
2019-02-27T18:25:59.622Z,80.60
2019-02-27T18:28:40.249Z,81.30
2019-02-27T18:31:19.715Z,81.20
2019-02-27T18:33:59.501Z,81.20
2019-02-27T18:36:42.741Z,81.30
2019-02-27T18:39:20.710Z,81.70
2019-02-27T18:41:58.565Z,81.80
2019-02-27T18:44:38.334Z,81.80
2019-02-27T18:47:19.225Z,81.60
2019-02-27T18:49:57.272Z,82.80
2019-02-27T18:52:38.206Z,82.80
2019-02-27T18:55:16.323Z,82.30
2019-02-27T18:57:54.895Z,82.40
2019-02-27T19:00:36.256Z,82.70
2019-02-27T19:03:19.519Z,83.30
2019-02-27T19:05:57.830Z,83.70
2019-02-27T19:08:37.595Z,83.30
2019-02-27T19:11:16.010Z,83.70
2019-02-27T19:13:55.197Z,83.40
2019-02-27T19:16:34.498Z,83.80
2019-02-27T19:19:13.773Z,83.40
2019-02-27T19:21:55.335Z,83.10
2019-02-27T19:24:34.169Z,82.80
2019-02-27T19:27:12.004Z,83.30
2019-02-27T19:29:50.087Z,83.30
2019-02-27T19:32:29.870Z,84.00
2019-02-27T19:35:09.079Z,82.80
2019-02-27T19:37:48.238Z,82.30
2019-02-27T19:40:29.900Z,82.70
2019-02-27T19:43:07.855Z,83.30
2019-02-27T19:45:46.740Z,82.70
2019-02-27T19:48:26.258Z,82.70
2019-02-27T19:51:04.974Z,82.20
2019-02-27T19:53:42.839Z,83.00
2019-02-27T19:56:21.810Z,83.20
2019-02-27T19:58:59.890Z,82.30
2019-02-27T20:01:42.816Z,82.10
2019-02-27T20:04:19.650Z,82.40
2019-02-27T20:07:01.807Z,82.50
2019-02-27T20:09:39.914Z,82.50
2019-02-27T20:12:19.462Z,82.10
2019-02-27T20:14:58.104Z,81.20
2019-02-27T20:17:36.492Z,81.60
2019-02-27T20:20:15.958Z,82.60
2019-02-27T20:22:54.599Z,82.00
2019-02-27T20:25:32.953Z,81.30
2019-02-27T20:28:17.419Z,80.80
2019-02-27T20:30:56.586Z,81.50
2019-02-27T20:33:37.196Z,82.10
2019-02-27T20:36:16.291Z,81.40
2019-02-27T20:38:56.345Z,81.60
2019-02-27T20:41:34.497Z,81.40
2019-02-27T20:44:12.593Z,82.50
2019-02-27T20:46:51.123Z,83.00
2019-02-27T20:49:30.700Z,82.30
2019-02-27T20:52:14.702Z,82.10
2019-02-27T20:54:48.705Z,82.10
2019-02-27T20:57:28.097Z,82.50
2019-02-27T21:00:08.000Z,82.80
2019-02-27T21:02:50.301Z,82.90
2019-02-27T21:05:27.368Z,82.20
2019-02-27T21:08:08.345Z,82.40
2019-02-27T21:10:54.923Z,82.40
2019-02-27T21:13:31.110Z,83.10
2019-02-27T21:16:13.789Z,82.90
2019-02-27T21:18:52.360Z,81.80
2019-02-27T21:21:32.782Z,81.60
2019-02-27T21:24:13.229Z,82.10
2019-02-27T21:26:50.890Z,83.00
2019-02-27T21:29:29.799Z,82.60
2019-02-27T21:32:10.109Z,81.80
2019-02-27T21:34:49.487Z,81.80
2019-02-27T21:37:28.120Z,82.80
2019-02-27T21:40:09.541Z,82.70
2019-02-27T21:42:52.001Z,81.60
2019-02-27T21:45:37.258Z,81.10
2019-02-27T21:48:16.635Z,81.00
2019-02-27T21:50:57.305Z,81.20
2019-02-27T21:53:37.868Z,81.50
2019-02-27T21:56:18.051Z,81.40
2019-02-27T21:58:56.757Z,81.20
2019-02-27T22:01:37.196Z,81.10
2019-02-27T22:04:19.497Z,81.30
2019-02-27T22:06:59.298Z,81.70
2019-02-27T22:09:44.584Z,81.40
2019-02-27T22:12:27.067Z,81.20
2019-02-27T22:15:07.430Z,80.80
2019-02-27T22:17:46.424Z,81.70
2019-02-27T22:20:27.121Z,81.80
2019-02-27T22:23:07.402Z,82.00
2019-02-27T22:25:47.601Z,81.20
2019-02-27T22:28:28.860Z,80.70
2019-02-27T22:31:07.759Z,81.20
2019-02-27T22:34:03.132Z,82.10
2019-02-27T22:36:54.055Z,81.80
2019-02-27T22:39:39.909Z,81.20
2019-02-27T22:42:24.093Z,80.80
2019-02-27T22:45:04.241Z,81.30
2019-02-27T22:47:45.958Z,82.20
2019-02-27T22:50:26.604Z,82.00
2019-02-27T22:53:18.214Z,81.20
2019-02-27T22:55:58.740Z,80.70
2019-02-27T22:58:37.663Z,81.40
2019-02-27T23:01:33.030Z,81.90
2019-02-27T23:04:15.716Z,82.10
2019-02-27T23:06:54.021Z,81.90
2019-02-27T23:09:33.665Z,81.30
2019-02-27T23:12:12.407Z,81.30
2019-02-27T23:14:52.986Z,81.70
2019-02-27T23:17:32.550Z,82.00
2019-02-27T23:20:11.733Z,81.90
2019-02-27T23:22:53.263Z,81.00
2019-02-27T23:25:34.265Z,80.70
2019-02-27T23:28:16.230Z,81.10
2019-02-27T23:30:55.485Z,81.60
2019-02-27T23:33:35.972Z,81.70
2019-02-27T23:36:13.030Z,81.30
2019-02-27T23:38:51.790Z,81.00
2019-02-27T23:41:32.034Z,81.20
2019-02-27T23:44:12.246Z,81.70
2019-02-27T23:46:57.228Z,81.80
2019-02-27T23:49:33.619Z,81.30
2019-02-27T23:52:15.080Z,80.80
2019-02-27T23:54:54.094Z,81.40
2019-02-27T23:57:33.609Z,81.70
